createdAt,value
2023-05-15T00:00:55.686Z,98163.19
2023-05-15T00:02:59.572Z,98156.34
2023-05-15T00:05:01.348Z,98159.41
2023-05-15T00:07:02.994Z,98156.94
2023-05-15T00:09:13.568Z,98158.38
2023-05-15T00:11:15.279Z,98163.66
2023-05-15T00:13:17.990Z,98172.22
2023-05-15T00:15:19.638Z,98171.41
2023-05-15T00:17:24.221Z,98173.63
2023-05-15T00:19:27.045Z,98188.78
2023-05-15T00:21:28.497Z,98187.19
2023-05-15T00:23:30.084Z,98182.78
2023-05-15T00:25:31.586Z,98178.69
2023-05-15T00:27:33.467Z,98176.50
2023-05-15T00:29:34.911Z,98178.47
2023-05-15T00:31:36.608Z,98173.22
2023-05-15T00:33:38.642Z,98177.91
2023-05-15T00:35:40.185Z,98172.72
2023-05-15T00:37:41.807Z,98166.72
2023-05-15T00:39:48.618Z,98170.88
2023-05-15T00:42:06.297Z,98169.22
2023-05-15T00:44:09.591Z,98159.34
2023-05-15T00:46:14.240Z,98159.13
2023-05-15T00:48:18.116Z,98164.09
2023-05-15T00:50:19.908Z,98151.47
2023-05-15T00:52:22.135Z,98141.88
2023-05-15T00:54:25.093Z,98149.28
2023-05-15T00:56:33.114Z,98141.34
2023-05-15T00:58:36.569Z,98151.84
2023-05-15T01:00:43.492Z,98155.19
2023-05-15T01:02:46.125Z,98158.25
2023-05-15T01:04:48.677Z,98157.69
2023-05-15T01:06:53.408Z,98155.25
2023-05-15T01:08:59.116Z,98155.56
2023-05-15T01:11:06.212Z,98154.22
2023-05-15T01:13:09.822Z,98158.91
2023-05-15T01:15:11.352Z,98157.25
2023-05-15T01:17:12.889Z,98161.72
2023-05-15T01:19:15.571Z,98164.47
2023-05-15T01:21:38.252Z,98156.50
2023-05-15T01:24:15.495Z,98157.13
2023-05-15T01:26:45.948Z,98157.41
2023-05-15T01:28:57.929Z,98155.78
2023-05-15T01:31:10.304Z,98145.06
2023-05-15T01:33:18.623Z,98150.88
2023-05-15T01:35:38.232Z,98151.44
2023-05-15T01:37:44.099Z,98151.75
2023-05-15T01:39:53.813Z,98156.44
2023-05-15T01:42:06.590Z,98148.78
2023-05-15T01:44:15.502Z,98149.06
2023-05-15T01:46:21.901Z,98148.84
2023-05-15T01:48:28.434Z,98153.50
2023-05-15T01:50:34.550Z,98148.31
2023-05-15T01:52:40.819Z,98152.75
2023-05-15T01:54:42.959Z,98152.25
2023-05-15T01:56:48.916Z,98144.81
2023-05-15T01:58:52.662Z,98144.31
2023-05-15T02:00:55.082Z,98140.72
2023-05-15T02:02:57.795Z,98145.41
2023-05-15T02:04:59.706Z,98139.91
2023-05-15T02:07:05.164Z,98154.78
2023-05-15T02:09:10.474Z,98138.56
2023-05-15T02:11:13.340Z,98143.53
2023-05-15T02:13:16.923Z,98137.22
2023-05-15T02:15:20.020Z,98141.09
2023-05-15T02:17:22.773Z,98133.13
2023-05-15T02:19:24.811Z,98131.50
2023-05-15T02:21:26.242Z,98129.34
2023-05-15T02:23:28.083Z,98132.91
2023-05-15T02:26:08.492Z,98135.13
2023-05-15T02:28:19.093Z,98138.47
2023-05-15T02:30:27.424Z,98131.84
2023-05-15T02:32:50.856Z,98128.91
2023-05-15T02:35:04.143Z,98125.31
2023-05-15T02:37:11.392Z,98121.75
2023-05-15T02:39:15.628Z,98114.91
2023-05-15T02:41:18.168Z,98113.25
2023-05-15T02:43:20.367Z,98124.25
2023-05-15T02:45:24.853Z,98119.88
2023-05-15T02:47:27.417Z,98119.38
2023-05-15T02:49:29.251Z,98112.22
2023-05-15T02:51:33.979Z,98112.50
2023-05-15T02:53:42.214Z,98119.38
2023-05-15T02:55:44.100Z,98110.34
2023-05-15T02:57:45.806Z,98112.53
2023-05-15T02:59:47.465Z,98107.03
2023-05-15T03:01:49.317Z,98116.94
2023-05-15T03:03:50.984Z,98107.34
2023-05-15T03:05:52.763Z,98114.75
2023-05-15T03:07:54.387Z,98110.97
2023-05-15T03:09:55.859Z,98112.91
2023-05-15T03:12:00.591Z,98109.06
2023-05-15T03:14:05.071Z,98104.66
2023-05-15T03:16:07.135Z,98106.59
2023-05-15T03:18:11.375Z,98106.88
2023-05-15T03:20:14.438Z,98106.06
2023-05-15T03:22:16.007Z,98107.47
2023-05-15T03:24:17.510Z,98115.69
2023-05-15T03:26:19.159Z,98106.94
2023-05-15T03:28:26.860Z,98109.16
2023-05-15T03:30:28.358Z,98109.75
2023-05-15T03:32:29.950Z,98106.50
2023-05-15T03:34:32.349Z,98104.84
2023-05-15T03:36:33.764Z,98107.88
2023-05-15T03:38:35.298Z,98104.31
2023-05-15T03:40:40.024Z,98108.75
2023-05-15T03:42:52.200Z,98098.88
2023-05-15T03:44:56.330Z,98097.53
2023-05-15T03:46:57.943Z,98100.56
2023-05-15T03:49:02.503Z,98102.25
2023-05-15T03:51:04.230Z,98106.94
2023-05-15T03:53:05.803Z,98104.19
2023-05-15T03:55:10.798Z,98111.06
2023-05-15T03:57:14.650Z,98095.19
2023-05-15T03:59:16.287Z,98093.56
2023-05-15T04:01:17.731Z,98102.88
2023-05-15T04:03:22.194Z,98109.50
2023-05-15T04:05:24.024Z,98105.41
2023-05-15T04:07:25.768Z,98104.06
2023-05-15T04:09:30.173Z,98105.16
2023-05-15T04:11:34.772Z,98106.25
2023-05-15T04:13:36.362Z,98107.38
2023-05-15T04:15:38.529Z,98101.38
2023-05-15T04:17:40.106Z,98103.56
2023-05-15T04:19:43.059Z,98111.78
2023-05-15T04:21:46.717Z,98112.09
2023-05-15T04:23:48.301Z,98110.44
2023-05-15T04:25:50.098Z,98110.75
2023-05-15T04:27:51.759Z,98104.75
2023-05-15T04:29:53.365Z,98105.84
2023-05-15T04:31:54.916Z,98114.88
2023-05-15T04:33:56.396Z,98109.72
2023-05-15T04:36:00.787Z,98111.91
2023-05-15T04:38:05.499Z,98111.63
2023-05-15T04:40:08.355Z,98111.91
2023-05-15T04:42:10.008Z,98108.63
2023-05-15T04:44:11.598Z,98103.97
2023-05-15T04:46:13.102Z,98116.34
2023-05-15T04:48:14.954Z,98107.00
2023-05-15T04:50:19.259Z,98103.44
2023-05-15T04:52:20.747Z,98110.53
2023-05-15T04:54:22.353Z,98104.25
2023-05-15T04:56:23.824Z,98116.34
2023-05-15T04:58:25.283Z,98103.72
2023-05-15T05:00:28.790Z,98110.28
2023-05-15T05:02:30.599Z,98105.63
2023-05-15T05:04:32.338Z,98105.31
2023-05-15T05:06:37.109Z,98105.00
2023-05-15T05:08:38.770Z,98100.88
2023-05-15T05:10:40.414Z,98099.78
2023-05-15T05:12:41.960Z,98107.13
2023-05-15T05:14:44.648Z,98105.22
2023-05-15T05:16:46.316Z,98110.13
2023-05-15T05:18:48.007Z,98113.09
2023-05-15T05:20:50.673Z,98113.03
2023-05-15T05:22:52.159Z,98105.06
2023-05-15T05:24:53.624Z,98103.34
2023-05-15T05:26:57.958Z,98108.78
2023-05-15T05:28:59.683Z,98112.63
2023-05-15T05:31:02.487Z,98107.88
2023-05-15T05:33:06.392Z,98111.97
2023-05-15T05:35:09.679Z,98106.13
2023-05-15T05:37:12.109Z,98109.63
2023-05-15T05:39:16.574Z,98108.16
2023-05-15T05:41:18.328Z,98108.97
2023-05-15T05:43:20.866Z,98104.75
2023-05-15T05:45:22.386Z,98106.03
2023-05-15T05:47:24.126Z,98108.13
2023-05-15T05:49:25.624Z,98101.94
2023-05-15T05:51:27.154Z,98105.16
2023-05-15T05:53:28.633Z,98103.38
2023-05-15T05:55:30.364Z,98107.09
2023-05-15T05:57:32.308Z,98106.16
2023-05-15T05:59:33.794Z,98104.84
2023-05-15T06:01:35.629Z,98103.88
2023-05-15T06:03:38.884Z,98102.28
2023-05-15T06:05:40.700Z,98103.50
2023-05-15T06:07:43.160Z,98103.84
2023-05-15T06:09:45.953Z,98106.34
2023-05-15T06:11:47.678Z,98098.09
2023-05-15T06:13:49.217Z,98105.28
2023-05-15T06:15:56.647Z,98098.34
2023-05-15T06:17:58.251Z,98090.25
2023-05-15T06:19:59.938Z,98092.44
2023-05-15T06:22:01.547Z,98095.38
2023-05-15T06:24:06.250Z,98091.97
2023-05-15T06:26:07.826Z,98097.66
2023-05-15T06:28:09.370Z,98092.28
2023-05-15T06:30:14.197Z,98090.81
2023-05-15T06:32:15.615Z,98094.81
2023-05-15T06:34:17.241Z,98086.97
2023-05-15T06:36:18.832Z,98092.41
2023-05-15T06:38:20.233Z,98102.25
2023-05-15T06:40:21.840Z,98095.00
2023-05-15T06:42:27.009Z,98093.25
2023-05-15T06:44:29.806Z,98087.66
2023-05-15T06:46:31.764Z,98085.41
2023-05-15T06:48:33.401Z,98085.63
2023-05-15T06:52:50.428Z,98085.97
2023-05-15T06:54:52.104Z,98080.63
2023-05-15T06:56:53.625Z,98077.53
2023-05-15T06:58:55.172Z,98076.94
2023-05-15T07:00:57.691Z,98074.63
2023-05-15T07:03:00.935Z,98074.63
2023-05-15T07:05:03.310Z,98073.00
2023-05-15T07:07:05.211Z,98077.38
2023-05-15T07:09:06.633Z,98080.50
2023-05-15T07:11:08.183Z,98081.09
2023-05-15T07:13:09.680Z,98073.78
2023-05-15T07:15:11.382Z,98069.19
2023-05-15T07:17:12.975Z,98070.84
2023-05-15T07:19:19.223Z,98086.47
2023-05-15T07:21:20.943Z,98075.84
2023-05-15T07:23:22.401Z,98074.38
2023-05-15T07:25:25.279Z,98075.03
2023-05-15T07:27:27.347Z,98072.41
2023-05-15T07:29:28.970Z,98069.16
2023-05-15T07:31:33.684Z,98069.47
2023-05-15T07:33:35.268Z,98067.13
2023-05-15T07:35:36.793Z,98064.00
2023-05-15T07:37:38.773Z,98058.41
2023-05-15T07:39:40.544Z,98058.69
2023-05-15T07:41:42.036Z,98055.06
2023-05-15T07:43:43.585Z,98060.91
2023-05-15T07:45:46.216Z,98058.41
2023-05-15T07:47:49.292Z,98059.84
2023-05-15T07:49:50.758Z,98060.47
2023-05-15T07:51:52.229Z,98064.38
2023-05-15T07:53:53.761Z,98057.91
2023-05-15T07:55:55.361Z,98057.06
2023-05-15T07:57:56.776Z,98051.44
2023-05-15T07:59:58.368Z,98057.06
2023-05-15T08:02:02.826Z,98050.72
2023-05-15T08:04:08.615Z,98050.00
2023-05-15T08:06:10.144Z,98047.28
2023-05-15T08:08:12.070Z,98058.88
2023-05-15T08:10:13.692Z,98050.25
2023-05-15T08:12:21.394Z,98050.72
2023-05-15T08:14:25.845Z,98046.00
2023-05-15T08:16:27.701Z,98054.47
2023-05-15T08:18:29.645Z,98053.38
2023-05-15T08:20:31.471Z,98048.63
2023-05-15T08:22:33.626Z,98051.75
2023-05-15T08:24:35.233Z,98053.22
2023-05-15T08:26:36.685Z,98050.34
2023-05-15T08:28:38.196Z,98040.22
2023-05-15T08:30:39.686Z,98042.41
2023-05-15T08:32:43.820Z,98043.84
2023-05-15T08:34:45.744Z,98036.38
2023-05-15T08:36:47.435Z,98027.31
2023-05-15T08:38:48.933Z,98026.97
2023-05-15T08:40:52.998Z,98029.88
2023-05-15T08:42:56.098Z,98027.19
2023-05-15T08:44:58.918Z,98024.50
2023-05-15T08:47:00.862Z,98021.47
2023-05-15T08:49:14.596Z,98019.59
2023-05-15T08:51:18.813Z,98023.75
2023-05-15T08:53:20.952Z,98018.63
2023-05-15T08:55:23.966Z,98020.69
2023-05-15T08:57:32.406Z,98018.38
2023-05-15T08:59:34.237Z,98017.56
2023-05-15T09:01:36.180Z,98021.19
2023-05-15T09:03:37.738Z,98018.72
2023-05-15T09:05:40.234Z,98019.09
2023-05-15T09:07:46.409Z,98016.66
2023-05-15T09:09:48.050Z,98019.78
2023-05-15T09:11:50.968Z,98017.72
2023-05-15T09:13:53.567Z,98005.75
2023-05-15T09:15:55.018Z,98021.66
2023-05-15T09:17:56.738Z,98012.16
2023-05-15T09:19:58.266Z,98018.09
2023-05-15T09:22:24.296Z,98021.56
2023-05-15T09:24:28.192Z,98013.09
2023-05-15T09:26:29.855Z,98018.22
2023-05-15T09:28:33.847Z,98020.09
2023-05-15T09:30:41.969Z,98008.41
2023-05-15T09:32:46.826Z,98007.47
2023-05-15T09:34:48.298Z,98011.69
2023-05-15T09:36:49.718Z,98010.75
2023-05-15T09:39:01.249Z,98003.41
2023-05-15T09:41:04.807Z,98001.00
2023-05-15T09:43:06.662Z,98003.34
2023-05-15T09:45:17.743Z,98005.63
2023-05-15T09:47:19.649Z,98003.34
2023-05-15T09:49:21.396Z,97996.59
2023-05-15T09:51:22.989Z,98000.63
2023-05-15T09:53:25.027Z,97998.31
2023-05-15T09:55:27.638Z,97994.50
2023-05-15T09:57:31.946Z,98002.63
2023-05-15T09:59:36.114Z,97998.84
2023-05-15T10:01:37.705Z,97994.66
2023-05-15T10:03:42.201Z,97991.25
2023-05-15T10:05:44.254Z,97985.91
2023-05-15T10:07:46.156Z,97994.47
2023-05-15T10:09:47.789Z,97985.47
2023-05-15T10:11:53.882Z,97983.63
2023-05-15T10:13:55.962Z,97982.53
2023-05-15T10:15:58.344Z,97980.66
2023-05-15T10:18:00.619Z,97978.78
2023-05-15T10:20:07.140Z,97988.06
2023-05-15T10:22:11.321Z,97979.88
2023-05-15T10:24:16.550Z,97979.00
2023-05-15T10:26:28.317Z,97982.88
2023-05-15T10:28:31.455Z,97978.81
2023-05-15T10:30:33.566Z,97972.41
2023-05-15T10:32:38.510Z,97973.25
2023-05-15T10:34:40.247Z,97967.63
2023-05-15T10:36:45.409Z,97968.38
2023-05-15T10:38:48.111Z,97950.75
2023-05-15T10:40:52.647Z,97960.72
2023-05-15T10:43:01.522Z,97955.81
2023-05-15T10:45:03.784Z,97949.63
2023-05-15T10:47:06.365Z,97946.22
2023-05-15T10:49:08.078Z,97947.22
2023-05-15T10:51:23.745Z,97941.81
2023-05-15T10:53:25.350Z,97945.72
2023-05-15T10:55:27.333Z,97947.53
2023-05-15T10:57:30.146Z,97940.50
2023-05-15T10:59:32.928Z,97946.19
2023-05-15T11:01:39.862Z,97934.69
2023-05-15T11:03:49.205Z,97932.78
2023-05-15T11:06:11.565Z,97933.22
2023-05-15T11:08:17.807Z,97935.69
2023-05-15T11:10:28.132Z,97933.69
2023-05-15T11:12:56.802Z,97938.88
2023-05-15T11:14:58.510Z,97935.25
2023-05-15T11:17:04.155Z,97940.78
2023-05-15T11:19:40.258Z,97932.28
2023-05-15T11:21:46.361Z,97936.56
2023-05-15T11:23:47.855Z,97938.88
2023-05-15T11:25:58.858Z,97950.75
2023-05-15T11:28:00.521Z,97942.75
2023-05-15T11:30:10.972Z,97931.09
2023-05-15T11:32:44.142Z,97930.75
2023-05-15T11:34:45.728Z,97945.22
2023-05-15T11:36:47.579Z,97944.91
2023-05-15T11:38:50.896Z,97946.16
2023-05-15T11:40:58.321Z,97939.75
2023-05-15T11:43:08.131Z,97946.91
2023-05-15T11:45:10.759Z,97944.03
2023-05-15T11:47:12.381Z,97947.16
2023-05-15T11:49:15.567Z,97938.63
2023-05-15T11:51:25.028Z,97943.28
2023-05-15T11:53:28.523Z,97944.00
2023-05-15T11:55:32.414Z,97942.22
2023-05-15T11:57:33.889Z,97946.84
2023-05-15T11:59:35.540Z,97937.53
2023-05-15T12:01:42.033Z,97945.78
2023-05-15T12:03:44.149Z,97944.84
2023-05-15T12:05:57.477Z,97939.09
2023-05-15T12:08:01.068Z,97941.41
2023-05-15T12:10:06.861Z,97939.63
2023-05-15T12:12:13.814Z,97934.66
2023-05-15T12:14:15.357Z,97940.19
2023-05-15T12:16:16.886Z,97934.06
2023-05-15T12:18:18.534Z,97939.56
2023-05-15T12:20:20.162Z,97947.53
2023-05-15T12:22:21.992Z,97941.06
2023-05-15T12:24:23.602Z,97946.22
2023-05-15T12:26:26.631Z,97943.78
2023-05-15T12:28:29.660Z,97952.53
2023-05-15T12:30:32.749Z,97958.13
2023-05-15T12:32:38.023Z,97953.25
2023-05-15T12:34:42.445Z,97955.88
2023-05-15T12:36:43.890Z,97956.25
2023-05-15T12:38:46.179Z,97952.28
2023-05-15T12:40:53.890Z,97959.13
2023-05-15T12:42:56.201Z,97958.63
2023-05-15T12:44:57.832Z,97955.75
2023-05-15T12:46:59.493Z,97957.28
2023-05-15T12:49:04.568Z,97957.22
2023-05-15T12:51:09.469Z,97963.53
2023-05-15T12:53:18.165Z,97970.28
2023-05-15T12:55:28.434Z,97965.44
2023-05-15T12:57:29.975Z,97963.00
2023-05-15T12:59:31.843Z,97959.75
2023-05-15T13:01:33.560Z,97948.97
2023-05-15T13:03:35.766Z,97950.50
2023-05-15T13:05:38.548Z,97945.28
2023-05-15T13:07:49.085Z,97942.50
2023-05-15T13:10:07.031Z,97942.03
2023-05-15T13:12:08.916Z,97938.53
2023-05-15T13:14:17.016Z,97936.16
2023-05-15T13:16:23.975Z,97931.84
2023-05-15T13:18:25.731Z,97937.88
2023-05-15T13:20:52.934Z,97936.34
2023-05-15T13:22:54.528Z,97937.94
2023-05-15T13:24:57.090Z,97933.25
2023-05-15T13:26:58.595Z,97937.31
2023-05-15T13:29:01.510Z,97935.34
2023-05-15T13:31:03.150Z,97931.00
2023-05-15T13:33:05.073Z,97931.78
2023-05-15T13:35:07.109Z,97932.25
2023-05-15T13:37:08.597Z,97933.50
2023-05-15T13:39:13.189Z,97926.72
2023-05-15T13:41:14.689Z,97920.31
2023-05-15T13:43:16.113Z,97922.38
2023-05-15T13:45:17.640Z,97920.41
2023-05-15T13:47:19.247Z,97917.22
2023-05-15T13:49:24.522Z,97904.50
2023-05-15T13:51:26.108Z,97914.59
2023-05-15T13:53:27.614Z,97913.50
2023-05-15T13:55:29.369Z,97910.06
2023-05-15T13:57:31.562Z,97905.78
2023-05-15T13:59:33.022Z,97912.69
2023-05-15T14:01:34.603Z,97918.78
2023-05-15T14:03:36.328Z,97912.09
2023-05-15T14:05:40.982Z,97919.38
2023-05-15T14:07:42.748Z,97915.03
2023-05-15T14:09:44.338Z,97923.47
2023-05-15T14:11:45.869Z,97906.34
2023-05-15T14:13:47.449Z,97911.56
2023-05-15T14:15:49.054Z,97913.19
2023-05-15T14:17:50.735Z,97911.63
2023-05-15T14:19:57.085Z,97915.22
2023-05-15T14:21:58.551Z,97920.03
2023-05-15T14:24:00.644Z,97918.81
2023-05-15T14:26:08.435Z,97910.00
2023-05-15T14:28:10.063Z,97912.78
2023-05-15T14:30:11.821Z,97915.59
2023-05-15T14:32:13.392Z,97924.38
2023-05-15T14:34:15.453Z,97923.56
2023-05-15T14:36:16.919Z,97926.78
2023-05-15T14:38:19.625Z,97912.38
2023-05-15T14:40:21.533Z,97907.94
2023-05-15T14:42:23.076Z,97915.50
2023-05-15T14:44:26.421Z,97914.34
2023-05-15T14:46:28.372Z,97920.75
2023-05-15T14:48:30.062Z,97916.31
2023-05-15T14:50:31.574Z,97921.91
2023-05-15T14:52:33.683Z,97911.94
2023-05-15T14:54:38.144Z,97907.94
2023-05-15T14:56:39.733Z,97913.91
2023-05-15T14:58:41.323Z,97908.31
2023-05-15T15:00:44.821Z,97931.50
2023-05-15T15:02:46.459Z,97923.13
2023-05-15T15:04:48.178Z,97925.44
2023-05-15T15:06:49.917Z,97938.66
2023-05-15T15:08:51.454Z,97936.19
2023-05-15T15:10:52.953Z,97929.00
2023-05-15T15:12:54.543Z,97932.97
2023-05-15T15:14:56.041Z,97933.72
2023-05-15T15:16:58.682Z,97923.66
2023-05-15T15:19:00.316Z,97931.94
2023-05-15T15:21:04.968Z,97933.50
2023-05-15T15:23:06.544Z,97929.84
2023-05-15T15:25:08.436Z,97924.16
2023-05-15T15:27:09.982Z,97928.16
2023-05-15T15:29:11.461Z,97929.69
2023-05-15T15:31:12.919Z,97930.44
2023-05-15T15:33:14.386Z,97936.75
2023-05-15T15:35:15.923Z,97929.06
2023-05-15T15:37:17.369Z,97933.41
2023-05-15T15:39:19.102Z,97927.38
2023-05-15T15:41:23.557Z,97928.09
2023-05-15T15:43:25.161Z,97935.63
2023-05-15T15:45:26.731Z,97929.22
2023-05-15T15:47:32.073Z,97931.97
2023-05-15T15:49:33.737Z,97933.50
2023-05-15T15:51:35.494Z,97925.84
2023-05-15T15:53:39.632Z,97931.78
2023-05-15T15:55:41.081Z,97930.91
2023-05-15T15:57:42.630Z,97931.63
2023-05-15T15:59:44.331Z,97931.53
2023-05-15T16:01:46.504Z,97938.66
2023-05-15T16:03:48.141Z,97933.03
2023-05-15T16:05:49.846Z,97928.16
2023-05-15T16:07:51.399Z,97928.88
2023-05-15T16:10:00.450Z,97937.66
2023-05-15T16:12:12.875Z,97945.09
2023-05-15T16:14:14.344Z,97945.47
2023-05-15T16:16:16.486Z,97943.06
2023-05-15T16:18:18.058Z,97944.59
2023-05-15T16:20:19.657Z,97946.16
2023-05-15T16:22:22.070Z,97952.44
2023-05-15T16:24:26.366Z,97944.78
2023-05-15T16:26:28.050Z,97960.25
2023-05-15T16:28:31.595Z,97955.38
2023-05-15T16:30:47.513Z,97955.31
2023-05-15T16:32:59.461Z,97958.41
2023-05-15T16:35:01.038Z,97964.69
2023-05-15T16:37:02.986Z,97966.22
2023-05-15T16:39:07.892Z,97964.53
2023-05-15T16:41:12.397Z,97961.63
2023-05-15T16:43:16.810Z,97963.53
2023-05-15T16:45:18.490Z,97974.16
2023-05-15T16:47:20.387Z,97976.84
2023-05-15T16:49:24.422Z,97966.78
2023-05-15T16:51:25.906Z,97967.03
2023-05-15T16:53:29.014Z,97972.88
2023-05-15T16:55:31.029Z,97964.34
2023-05-15T16:57:32.711Z,97959.84
2023-05-15T16:59:34.322Z,97965.66
2023-05-15T17:01:36.231Z,97965.56
2023-05-15T17:03:38.635Z,97974.19
2023-05-15T17:05:42.597Z,97981.16
2023-05-15T17:07:46.542Z,97987.00
2023-05-15T17:09:47.973Z,97991.22
2023-05-15T17:11:49.430Z,97993.44
2023-05-15T17:13:51.290Z,98001.25
2023-05-15T17:15:53.356Z,98005.91
2023-05-15T17:17:55.149Z,98013.72
2023-05-15T17:19:57.440Z,98020.69
2023-05-15T17:22:01.799Z,98028.03
2023-05-15T17:24:03.347Z,98039.28
2023-05-15T17:26:04.924Z,98049.41
2023-05-15T17:28:06.491Z,98043.59
2023-05-15T17:30:10.081Z,98049.75
2023-05-15T17:32:12.133Z,98051.16
2023-05-15T17:34:16.497Z,98054.88
2023-05-15T17:36:19.614Z,98059.41
2023-05-15T17:38:21.310Z,98057.66
2023-05-15T17:40:26.296Z,98066.94
2023-05-15T17:42:28.455Z,98070.28
2023-05-15T17:44:31.181Z,98077.25
2023-05-15T17:46:33.187Z,98072.69
2023-05-15T17:48:34.777Z,98067.69
2023-05-15T17:50:38.083Z,98057.94
2023-05-15T17:52:39.544Z,98054.09
2023-05-15T17:54:41.142Z,98067.41
2023-05-15T17:57:00.487Z,98071.91
2023-05-15T17:59:04.859Z,98085.25
2023-05-15T18:01:07.078Z,98072.94
2023-05-15T18:03:09.301Z,98078.69
2023-05-15T18:05:10.970Z,98084.00
2023-05-15T18:07:12.562Z,98084.91
2023-05-15T18:09:14.123Z,98088.53
2023-05-15T18:11:22.306Z,98096.59
2023-05-15T18:13:24.504Z,98087.53
2023-05-15T18:15:26.329Z,98085.28
2023-05-15T18:17:28.776Z,98087.81
2023-05-15T18:19:33.006Z,98093.91
2023-05-15T18:21:37.987Z,98093.59
2023-05-15T18:23:39.657Z,98090.56
2023-05-15T18:25:41.077Z,98091.94
2023-05-15T18:27:43.069Z,98083.28
2023-05-15T18:29:45.812Z,98083.81
2023-05-15T18:31:47.569Z,98095.41
2023-05-15T18:33:49.243Z,98095.13
2023-05-15T18:35:52.028Z,98099.75
2023-05-15T18:37:56.138Z,98107.78
2023-05-15T18:39:58.771Z,98111.41
2023-05-15T18:42:00.596Z,98114.38
2023-05-15T18:44:02.151Z,98120.75
2023-05-15T18:46:03.966Z,98121.75
2023-05-15T18:48:05.981Z,98125.53
2023-05-15T18:50:08.303Z,98122.94
2023-05-15T18:52:10.188Z,98135.81
2023-05-15T18:54:11.834Z,98146.75
2023-05-15T18:56:13.293Z,98136.97
2023-05-15T18:58:14.915Z,98134.38
2023-05-15T19:00:34.027Z,98136.16
2023-05-15T19:02:40.301Z,98137.81
2023-05-15T19:04:41.931Z,98134.53
2023-05-15T19:06:43.798Z,98136.34
2023-05-15T19:08:47.018Z,98124.31
2023-05-15T19:10:48.890Z,98137.63
2023-05-15T19:12:50.842Z,98141.88
2023-05-15T19:14:52.523Z,98141.75
2023-05-15T19:16:54.453Z,98145.16
2023-05-15T19:18:56.017Z,98147.75
2023-05-15T19:20:57.881Z,98145.97
2023-05-15T19:22:59.422Z,98149.38
2023-05-15T19:25:01.057Z,98144.19
2023-05-15T19:27:05.779Z,98143.19
2023-05-15T19:29:10.106Z,98142.72
2023-05-15T19:31:20.434Z,98144.50
2023-05-15T19:33:30.556Z,98150.69
2023-05-15T19:35:41.194Z,98144.97
2023-05-15T19:37:45.713Z,98146.78
2023-05-15T19:39:47.295Z,98162.09
2023-05-15T19:41:48.760Z,98163.56
2023-05-15T19:43:53.381Z,98165.34
2023-05-15T19:45:54.905Z,98164.06
2023-05-15T19:47:56.853Z,98167.13
2023-05-15T19:49:58.693Z,98176.06
2023-05-15T19:52:03.804Z,98169.19
2023-05-15T19:54:05.505Z,98176.19
2023-05-15T19:56:07.219Z,98166.91
2023-05-15T19:58:09.315Z,98166.56
2023-05-15T20:00:14.248Z,98167.69
2023-05-15T20:02:15.894Z,98168.16
2023-05-15T20:04:17.377Z,98168.31
2023-05-15T20:06:20.400Z,98175.94
2023-05-15T20:08:22.228Z,98171.69
2023-05-15T20:10:24.290Z,98181.25
2023-05-15T20:12:25.950Z,98168.41
2023-05-15T20:14:30.605Z,98169.84
2023-05-15T20:16:32.208Z,98171.09
2023-05-15T20:18:34.916Z,98176.16
2023-05-15T20:20:36.642Z,98182.16
2023-05-15T20:22:39.567Z,98181.13
2023-05-15T20:24:41.132Z,98190.09
2023-05-15T20:26:43.235Z,98184.66
2023-05-15T20:28:45.448Z,98191.59
2023-05-15T20:30:47.376Z,98184.28
2023-05-15T20:32:49.160Z,98184.91
2023-05-15T20:34:52.054Z,98184.75
2023-05-15T20:36:54.626Z,98186.47
2023-05-15T20:38:56.166Z,98181.91
2023-05-15T20:40:57.919Z,98187.28
2023-05-15T20:43:01.180Z,98182.66
2023-05-15T20:45:05.096Z,98181.66
2023-05-15T20:47:09.677Z,98184.25
2023-05-15T20:49:11.993Z,98186.34
2023-05-15T20:51:13.479Z,98187.78
2023-05-15T20:53:15.252Z,98191.97
2023-05-15T20:55:17.220Z,98198.94
2023-05-15T20:57:18.787Z,98196.00
2023-05-15T20:59:20.478Z,98199.06
2023-05-15T21:01:22.191Z,98195.78
2023-05-15T21:03:32.951Z,98198.03
2023-05-15T21:05:34.496Z,98193.97
2023-05-15T21:07:36.583Z,98192.66
2023-05-15T21:09:38.157Z,98196.34
2023-05-15T21:11:39.833Z,98194.22
2023-05-15T21:13:42.815Z,98193.09
2023-05-15T21:15:45.572Z,98195.34
2023-05-15T21:17:47.129Z,98193.22
2023-05-15T21:19:48.767Z,98194.66
2023-05-15T21:21:53.315Z,98188.09
2023-05-15T21:23:54.984Z,98185.47
2023-05-15T21:25:56.630Z,98188.00
2023-05-15T21:27:58.228Z,98192.50
2023-05-15T21:29:59.905Z,98190.38
2023-05-15T21:32:01.439Z,98187.91
2023-05-15T21:34:02.986Z,98189.34
2023-05-15T21:36:05.062Z,98191.94
2023-05-15T21:38:07.144Z,98191.41
2023-05-15T21:40:09.362Z,98194.81
2023-05-15T21:42:12.968Z,98198.47
2023-05-15T21:44:14.597Z,98195.22
2023-05-15T21:46:20.306Z,98189.19
2023-05-15T21:48:22.069Z,98179.59
2023-05-15T21:50:23.661Z,98177.94
2023-05-15T21:52:25.373Z,98181.63
2023-05-15T21:54:26.822Z,98185.53
2023-05-15T21:56:28.479Z,98182.56
2023-05-15T21:58:32.184Z,98183.19
2023-05-15T22:00:34.292Z,98189.03
2023-05-15T22:02:38.951Z,98182.19
2023-05-15T22:04:40.763Z,98190.75
2023-05-15T22:06:43.516Z,98184.72
2023-05-15T22:08:45.008Z,98186.16
2023-05-15T22:10:47.080Z,98190.84
2023-05-15T22:12:50.624Z,98194.75
2023-05-15T22:14:58.861Z,98196.97
2023-05-15T22:17:04.312Z,98196.47
2023-05-15T22:19:06.198Z,98202.28
2023-05-15T22:21:14.114Z,98191.88
2023-05-15T22:23:15.628Z,98200.47
2023-05-15T22:25:17.103Z,98197.16
2023-05-15T22:27:18.940Z,98202.69
2023-05-15T22:29:20.693Z,98202.19
2023-05-15T22:31:24.998Z,98205.03
2023-05-15T22:33:27.174Z,98207.28
2023-05-15T22:35:29.229Z,98203.22
2023-05-15T22:37:31.535Z,98207.38
2023-05-15T22:39:34.050Z,98211.25
2023-05-15T22:41:35.710Z,98211.91
2023-05-15T22:43:37.520Z,98206.66
2023-05-15T22:45:39.256Z,98211.66
2023-05-15T22:47:40.811Z,98205.66
2023-05-15T22:49:42.332Z,98209.47
2023-05-15T22:51:44.692Z,98205.41
2023-05-15T22:53:46.355Z,98206.81
2023-05-15T22:55:48.191Z,98209.91
2023-05-15T22:57:50.483Z,98214.91
2023-05-15T22:59:52.032Z,98213.25
2023-05-15T23:01:53.940Z,98211.94
2023-05-15T23:03:55.703Z,98205.91
2023-05-15T23:05:57.243Z,98215.28
2023-05-15T23:07:58.761Z,98216.69
2023-05-15T23:10:00.418Z,98223.34
2023-05-15T23:12:04.297Z,98216.50
2023-05-15T23:14:07.463Z,98210.19
2023-05-15T23:16:09.933Z,98214.34
2023-05-15T23:18:11.720Z,98209.94
2023-05-15T23:20:13.961Z,98220.97
2023-05-15T23:22:15.549Z,98223.72
2023-05-15T23:24:17.169Z,98215.78
2023-05-15T23:26:18.695Z,98214.94
2023-05-15T23:28:20.222Z,98211.38
2023-05-15T23:30:21.929Z,98212.78
2023-05-15T23:32:23.532Z,98207.59
2023-05-15T23:34:25.341Z,98216.97
2023-05-15T23:36:26.879Z,98210.97
2023-05-15T23:38:28.500Z,98211.56
2023-05-15T23:40:31.530Z,98203.59
2023-05-15T23:42:34.171Z,98203.38
2023-05-15T23:44:36.002Z,98204.50
2023-05-15T23:46:38.190Z,98209.47
2023-05-15T23:48:41.964Z,98210.63
2023-05-15T23:50:43.651Z,98212.03
2023-05-15T23:52:45.349Z,98215.06
2023-05-15T23:54:46.939Z,98214.56
2023-05-15T23:56:48.848Z,98215.16
2023-05-15T23:58:53.249Z,98208.03
